Aeroporto :
LOGIN :

Iscrizione | Disclaimer

   EN    FR    IT 

 










Sommario :    VFR   VFR Marginale   IFR   IFR Intensivo   IFR Molto Intensivo
Visibilità : 
Base nubi : 
>= 8 km
>= 3000ft
5 / 8 km
1000 / 3000 ft
1500m / 5 km
500 / 1000 ft
800 / 1500m
200 / 500 ft
< 800m
< 200 ft
Simboli :   Temporali  Nebbia  Neve Forte  Precipitazioni Forti  Vento > 20 kt
SIGMETs :   Varie  Temporali  Ghiacco  Turbolenza  Onda orograficha  Ceneri Vulcaniche







- Altitudine del aeroporto : 74 ft
- Codice IATA : MRS
- Carte del aeroporto


LFML - Marseille / Marignane

ULTIMO METAR :
  • 092300Z AUTO 33009KT 300V010 CAVOK 11/04 Q1024 NOSIG

METARs OBSOLETI :
  • 092230Z AUTO 30012KT CAVOK 10/05 Q1024 NOSIG
  • 092200Z AUTO 31009KT CAVOK 10/06 Q1023 NOSIG
  • 092130Z AUTO 31007KT CAVOK 10/05 Q1023 NOSIG
  • 092100Z AUTO 31004KT 270V020 CAVOK 11/04 Q1023 NOSIG
  • 092030Z AUTO 33007KT 300V040 CAVOK 11/05 Q1023 BECMG 30018KT

TAF AMD TAF LFML
Valido dal 09 a 21 ore il 11 a 03 ore UTC


092032Z 0921/1103 32018KT CAVOK TX12/1012Z TN08/1006Z
TEMPO 0921/1007 34008KT
BECMG 1008/1010 33023G33KT
TEMPO 1011/1103 32026G36KT
PROB40
TEMPO 1021/1024 32030KT
ATIS : +33 4 42 31 15 15
Nessun NOTAM noto per questo aeroporto.
4 SIGMETs conosciuti per la FIR Marseille (LFMM) :
 
Turbolenza severa
LFMM SIGMET 28 VALID 092200/100200 LFPW
LFMM MARSEILLE FIR/UIR SEV TURB FCST WI N4600 E00700 - N4400 E00700 - N4315 E00930 - N4145 E00745 - N4515 E00500 - N4600 E00700 FL330/390 MOV NE 10KT NC=
Turbolenza severa
LFMM SIGMET 27 VALID 092200/100200 LFPW
LFMM MARSEILLE FIR/UIR SEV TURB FCST WI N4400 E00700 - N4315 E00945 - N4115 E00945 - N4115 E00800 - N4300 E00515 - N4400 E00700 SFC/FL050 STNR NC=
Turbolenza severa
LFMM SIGMET 26 VALID 092200/100200 LFPW
LFMM MARSEILLE FIR/UIR SEV TURB FCST WI N4615 E00700 - N4400 E00700 - N4330 E00630 - N4445 E00530 - N4615 E00700 SFC/FL120 STNR NC=
Turbolenza severa
LFMM SIGMET 25 VALID 092200/100200 LFPW
LFMM MARSEILLE FIR/UIR SEV TURB FCST WI N4215 E00230 - N4345 E00245 - N4445 E00345 - N4430 E00415 - N4215 E00230 SFC/FL080 STNR NC=



MetMap, La meteo Aeronautica in un colpo d'occhio ! - Copyright ORBIFLY Dicembre 2007 - Disclaimer

ORBIFLY MET'MAP TEAM :

Programmazione e sviluppo : Alexandra Zaïnal
Concezione e sviluppo : Baudouin d'Aumeries
Co-Programmazione e sviluppo : Marc-Olivier Méhu
Supporto tecnico e logistico : Manuel Goepfert
Aiuto per la traduzione : Arnaldo La Scala

Contatto : metmap@orbifly.com




FONTI E CREDITI :

   NOAA